Time;durP1;ratioP1;P1;durP2;ratioP2;P2;SDS_P1;SDS_P2;PMS_P1;PMS_P2;Temp;Humidity;BMP_temperature;BMP_pressure;BME280_temperature;BME280_humidity;BME280_pressure;Samples;Min_cycle;Max_cycle;Signal;HPM_P1;HPM_P2
2022/09/18 00:02:06;;;;;;;8.67;1.90;;;10.50;99.90;;;;;;5033022;28;20198;-47
2022/09/18 00:04:32;;;;;;;7.03;1.93;;;10.50;99.90;;;;;;5038733;28;20184;-48
2022/09/18 00:06:58;;;;;;;15.30;2.37;;;10.40;99.90;;;;;;5072343;28;20209;-48
2022/09/18 00:09:23;;;;;;;14.37;2.00;;;10.40;99.90;;;;;;5072227;28;20181;-48
2022/09/18 00:11:50;;;;;;;9.30;2.37;;;10.40;99.90;;;;;;5072090;28;20186;-48
2022/09/18 00:14:25;;;;;;;14.20;2.10;;;10.30;99.90;;;;;;5071563;28;20252;-48
2022/09/18 00:16:50;;;;;;;13.57;2.10;;;10.30;99.90;;;;;;5037629;28;20999;-48
2022/09/18 00:19:17;;;;;;;23.30;2.37;;;10.20;99.90;;;;;;5049233;28;20524;-48
2022/09/18 00:21:45;;;;;;;14.27;2.23;;;10.20;99.90;;;;;;5032762;28;20241;-48
2022/09/18 00:24:11;;;;;;;13.20;2.10;;;10.20;99.90;;;;;;5032253;28;21001;-48
2022/09/18 00:26:37;;;;;;;15.27;2.10;;;10.10;99.90;;;;;;5031832;28;20994;-48
2022/09/18 00:29:04;;;;;;;8.67;1.83;;;10.20;99.90;;;;;;5031805;28;20496;-48
2022/09/18 00:31:35;;;;;;;6.83;1.77;;;10.20;99.90;;;;;;5031166;28;20194;-48
2022/09/18 00:34:04;;;;;;;10.17;1.77;;;10.10;99.90;;;;;;5050773;28;20432;-48
2022/09/18 00:36:30;;;;;;;10.83;1.50;;;10.10;99.90;;;;;;5047416;28;20437;-48
2022/09/18 00:39:00;;;;;;;10.07;2.10;;;10.10;99.90;;;;;;5032754;28;20421;-48
2022/09/18 00:41:34;;;;;;;13.17;2.80;;;10.10;99.90;;;;;;5042811;28;20443;-48
2022/09/18 00:44:39;;;;;;;6.67;2.00;;;10.10;99.90;;;;;;5071592;28;20871;-48
2022/09/18 00:47:10;;;;;;;9.60;1.77;;;10.10;99.90;;;;;;5071066;28;20415;-48
2022/09/18 00:49:39;;;;;;;13.00;2.20;;;10.10;99.90;;;;;;5057894;28;20457;-48
2022/09/18 00:52:05;;;;;;;11.50;2.13;;;10.10;99.90;;;;;;5051494;28;20444;-48
2022/09/18 00:54:37;;;;;;;16.37;3.30;;;10.10;99.90;;;;;;5038550;28;20417;-48
2022/09/18 00:57:16;;;;;;;8.50;1.70;;;10.10;99.90;;;;;;5049451;28;20436;-48
2022/09/18 00:59:44;;;;;;;16.77;1.90;;;10.10;99.90;;;;;;5050856;28;20456;-48
2022/09/18 01:02:11;;;;;;;22.40;1.77;;;10.20;99.90;;;;;;5042930;28;20452;-48
2022/09/18 01:04:37;;;;;;;13.93;2.10;;;10.20;99.90;;;;;;5031469;28;20452;-48
2022/09/18 01:07:32;;;;;;;10.33;2.30;;;10.20;99.90;;;;;;5031604;28;20946;-48
2022/09/18 01:10:17;;;;;;;12.50;2.03;;;10.20;99.90;;;;;;5031806;28;20418;-48
2022/09/18 01:13:29;;;;;;;12.63;2.10;;;10.20;99.90;;;;;;5031062;28;20492;-48
2022/09/18 01:16:26;;;;;;;15.50;2.27;;;10.20;99.90;;;;;;5031079;28;20469;-48
2022/09/18 01:19:10;;;;;;;23.50;2.27;;;10.20;99.90;;;;;;5030779;28;20413;-48
2022/09/18 01:21:44;;;;;;;15.90;2.10;;;10.20;99.90;;;;;;5031036;28;20410;-48
2022/09/18 01:24:25;;;;;;;12.50;2.10;;;10.20;99.90;;;;;;5030629;28;20804;-48
2022/09/18 01:27:02;;;;;;;9.93;1.90;;;10.20;99.90;;;;;;5040837;28;20511;-48
2022/09/18 01:29:40;;;;;;;19.87;2.60;;;10.20;99.90;;;;;;5030657;28;20489;-48
2022/09/18 01:32:18;;;;;;;12.17;2.20;;;10.20;99.90;;;;;;5030734;28;20790;-47
2022/09/18 01:34:59;;;;;;;17.07;2.67;;;10.20;99.90;;;;;;5030713;28;20441;-47
2022/09/18 01:37:33;;;;;;;9.37;1.97;;;10.20;1.10;;;;;;5030918;28;20402;-48
2022/09/18 01:40:04;;;;;;;9.87;2.53;;;10.10;1.00;;;;;;5031033;28;20407;-47
2022/09/18 01:42:33;;;;;;;11.73;1.77;;;10.10;1.00;;;;;;5029518;28;20425;-48
2022/09/18 01:45:04;;;;;;;20.80;2.10;;;10.00;1.00;;;;;;5031053;28;20417;-48
2022/09/18 01:47:38;;;;;;;5.80;1.60;;;10.00;1.00;;;;;;5030728;28;20504;-49
2022/09/18 01:50:04;;;;;;;12.67;2.37;;;10.00;1.00;;;;;;5030834;28;20416;-48
2022/09/18 01:52:37;;;;;;;9.37;2.00;;;10.00;1.00;;;;;;5030293;28;20414;-48
2022/09/18 01:55:10;;;;;;;5.57;1.60;;;9.90;99.90;;;;;;5030792;28;20937;-48
2022/09/18 01:57:51;;;;;;;12.17;2.20;;;9.90;99.90;;;;;;5030837;28;20468;-48
2022/09/18 02:00:17;;;;;;;10.93;2.70;;;9.90;99.90;;;;;;5030105;28;20416;-48
2022/09/18 02:02:48;;;;;;;7.53;1.60;;;9.90;99.90;;;;;;5030669;28;20421;-48
2022/09/18 02:05:23;;;;;;;9.40;2.13;;;9.90;1.00;;;;;;5030303;28;20509;-48
2022/09/18 02:08:07;;;;;;;12.07;2.10;;;9.90;1.00;;;;;;5030354;28;20460;-49
2022/09/18 02:10:37;;;;;;;17.73;2.33;;;9.90;1.00;;;;;;5030816;28;20434;-48
2022/09/18 02:13:04;;;;;;;8.97;2.43;;;9.80;1.00;;;;;;5033829;28;20469;-48
2022/09/18 02:15:36;;;;;;;11.23;2.20;;;9.70;1.00;;;;;;5034896;28;20517;-48
2022/09/18 02:18:11;;;;;;;17.13;1.93;;;9.70;1.00;;;;;;5034200;28;20831;-48
2022/09/18 02:20:41;;;;;;;15.67;2.40;;;9.60;1.00;;;;;;5034773;28;20513;-48
2022/09/18 02:23:07;;;;;;;18.77;2.20;;;9.60;7.20;;;;;;5034293;28;20418;-48
2022/09/18 02:25:56;;;;;;;9.37;2.00;;;9.60;99.40;;;;;;5033258;28;20513;-49
2022/09/18 02:28:24;;;;;;;20.30;2.40;;;9.60;99.90;;;;;;5034027;28;20924;-46
2022/09/18 02:30:50;;;;;;;11.90;2.10;;;9.60;99.90;;;;;;5034384;28;20406;-48
2022/09/18 02:33:30;;;;;;;14.83;2.30;;;9.60;99.90;;;;;;5033939;28;20425;-48
2022/09/18 02:36:22;;;;;;;14.67;3.30;;;9.60;99.90;;;;;;5034432;28;20520;-48
2022/09/18 02:38:59;;;;;;;12.03;1.97;;;9.70;99.90;;;;;;5033873;28;20918;-46
2022/09/18 02:41:50;;;;;;;15.97;2.23;;;9.70;99.90;;;;;;5034039;28;21121;-46
2022/09/18 02:44:18;;;;;;;11.30;1.73;;;9.80;99.90;;;;;;5033561;28;20405;-47
2022/09/18 02:47:03;;;;;;;7.20;1.90;;;9.80;64.30;;;;;;5033958;28;20406;-47
2022/09/18 02:49:37;;;;;;;10.87;2.17;;;9.80;21.00;;;;;;5033665;28;20398;-46
2022/09/18 02:52:12;;;;;;;15.40;2.33;;;9.80;22.20;;;;;;5030858;28;20817;-49
2022/09/18 02:54:51;;;;;;;9.13;2.00;;;9.80;6.60;;;;;;5034083;28;20401;-46
2022/09/18 02:57:35;;;;;;;12.60;1.90;;;9.80;1.00;;;;;;5033270;28;20946;-46
2022/09/18 03:00:03;;;;;;;12.53;2.13;;;9.80;1.00;;;;;;5033566;28;20483;-46
2022/09/18 03:02:29;;;;;;;13.60;1.83;;;9.70;1.00;;;;;;5033609;28;20432;-46
2022/09/18 03:04:54;;;;;;;17.87;2.27;;;9.70;1.00;;;;;;5034034;28;20739;-46
2022/09/18 03:07:20;;;;;;;12.53;1.87;;;9.70;1.00;;;;;;5033337;28;20207;-46
2022/09/18 03:09:46;;;;;;;4.80;1.53;;;9.70;1.00;;;;;;5033411;28;20171;-46
2022/09/18 03:12:12;;;;;;;12.93;2.10;;;9.80;1.00;;;;;;5032838;28;20207;-46
2022/09/18 03:14:37;;;;;;;13.87;2.07;;;9.70;99.90;;;;;;5034075;28;20175;-46
2022/09/18 03:17:03;;;;;;;9.60;1.97;;;9.70;99.90;;;;;;5033353;28;20529;-46
2022/09/18 03:19:29;;;;;;;8.10;1.70;;;9.70;99.90;;;;;;5033076;28;20183;-46
2022/09/18 03:21:54;;;;;;;10.83;1.60;;;9.70;1.00;;;;;;5033165;28;20284;-46
2022/09/18 03:24:20;;;;;;;11.23;1.80;;;9.70;1.00;;;;;;5031776;28;20218;-46
2022/09/18 03:26:46;;;;;;;11.90;1.60;;;9.70;1.00;;;;;;5033044;28;20207;-46
2022/09/18 03:29:13;;;;;;;8.23;1.53;;;9.70;1.00;;;;;;5033056;28;20874;-46
2022/09/18 03:31:39;;;;;;;9.57;1.80;;;9.60;1.00;;;;;;5033047;28;20463;-46
2022/09/18 03:34:05;;;;;;;10.77;1.87;;;9.60;1.00;;;;;;5033313;28;20418;-48
2022/09/18 03:36:31;;;;;;;11.83;2.00;;;9.60;1.00;;;;;;5032827;28;20394;-48
2022/09/18 03:38:57;;;;;;;10.50;1.73;;;9.50;1.00;;;;;;5032922;28;20445;-46
2022/09/18 03:41:23;;;;;;;8.63;1.50;;;9.50;1.00;;;;;;5032951;28;20418;-46
2022/09/18 03:43:49;;;;;;;6.37;1.70;;;9.40;1.00;;;;;;5033005;28;20183;-47
2022/09/18 03:46:22;;;;;;;9.07;1.37;;;9.40;1.00;;;;;;5032408;28;20525;-47
2022/09/18 03:48:49;;;;;;;8.50;1.40;;;9.30;1.00;;;;;;5032442;28;20456;-46
2022/09/18 03:51:17;;;;;;;8.47;2.27;;;9.30;1.00;;;;;;5032520;28;20402;-46
2022/09/18 03:53:44;;;;;;;15.50;2.00;;;9.30;6.10;;;;;;5032371;28;20480;-46
2022/09/18 03:56:09;;;;;;;8.73;1.77;;;9.30;26.00;;;;;;5032437;28;20962;-46
2022/09/18 03:58:35;;;;;;;11.40;1.60;;;9.30;22.40;;;;;;5032557;28;20406;-46
2022/09/18 04:01:00;;;;;;;10.00;2.20;;;9.30;1.00;;;;;;5032648;28;20254;-46
2022/09/18 04:03:26;;;;;;;7.07;1.73;;;9.30;1.00;;;;;;5032965;28;20680;-46
2022/09/18 04:05:51;;;;;;;9.67;1.60;;;9.30;1.00;;;;;;5033031;28;20251;-46
2022/09/18 04:08:17;;;;;;;11.50;1.43;;;9.20;1.00;;;;;;5033120;28;20249;-46
2022/09/18 04:10:45;;;;;;;12.23;1.73;;;9.20;1.00;;;;;;5031496;28;20217;-46
2022/09/18 04:13:11;;;;;;;7.80;1.80;;;9.20;1.00;;;;;;5032555;28;20597;-46
2022/09/18 04:15:36;;;;;;;9.30;1.73;;;9.20;1.00;;;;;;5032533;28;20422;-46
2022/09/18 04:18:02;;;;;;;10.37;1.60;;;9.20;1.00;;;;;;5031879;28;20191;-46
2022/09/18 04:20:27;;;;;;;11.33;1.60;;;9.30;1.00;;;;;;5032237;28;20163;-46
2022/09/18 04:22:53;;;;;;;7.00;1.70;;;9.30;1.00;;;;;;5032091;28;20233;-46
2022/09/18 04:25:19;;;;;;;5.37;1.60;;;9.30;1.00;;;;;;5032064;28;21085;-46
2022/09/18 04:27:47;;;;;;;18.67;2.40;;;9.30;1.00;;;;;;5032631;28;20203;-46
2022/09/18 04:30:13;;;;;;;10.83;1.70;;;9.30;1.00;;;;;;5031926;28;20163;-46
2022/09/18 04:32:39;;;;;;;8.90;1.60;;;9.30;1.00;;;;;;5031970;28;21097;-46
2022/09/18 04:35:05;;;;;;;6.13;1.33;;;9.30;1.00;;;;;;5031727;28;20151;-46
2022/09/18 04:37:31;;;;;;;8.13;1.50;;;9.40;1.00;;;;;;5032642;28;20406;-46
2022/09/18 04:39:56;;;;;;;6.23;1.50;;;9.30;25.90;;;;;;5028393;28;20540;-46
2022/09/18 04:42:22;;;;;;;8.60;1.70;;;9.30;49.10;;;;;;5030287;28;20190;-46
2022/09/18 04:44:47;;;;;;;14.43;1.80;;;9.30;94.10;;;;;;5031509;28;20170;-46
2022/09/18 04:47:13;;;;;;;12.90;2.97;;;9.20;99.90;;;;;;5031724;28;20233;-48
2022/09/18 04:49:39;;;;;;;5.43;1.50;;;9.20;99.90;;;;;;5032372;28;20535;-48
2022/09/18 04:52:04;;;;;;;14.70;1.83;;;9.10;99.90;;;;;;5031667;28;20629;-48
2022/09/18 04:54:30;;;;;;;5.93;1.40;;;9.10;99.90;;;;;;5031292;28;20535;-48
2022/09/18 04:56:56;;;;;;;3.80;1.37;;;9.00;99.90;;;;;;5031721;28;20524;-48
2022/09/18 04:59:21;;;;;;;8.67;2.07;;;9.00;99.90;;;;;;5031868;28;20170;-48
2022/09/18 05:01:47;;;;;;;6.10;1.40;;;9.00;99.90;;;;;;5031525;28;20300;-48
2022/09/18 05:04:13;;;;;;;6.60;1.57;;;9.00;99.90;;;;;;5031269;28;20186;-48
2022/09/18 05:06:39;;;;;;;10.03;1.60;;;9.00;99.90;;;;;;5040210;28;20197;-48
2022/09/18 05:09:04;;;;;;;10.77;1.93;;;9.00;99.90;;;;;;5050706;28;20234;-47
2022/09/18 05:11:30;;;;;;;8.50;1.97;;;9.00;1.00;;;;;;5051188;28;20467;-47
2022/09/18 05:13:56;;;;;;;9.87;1.90;;;9.00;1.00;;;;;;5050803;28;20183;-47
2022/09/18 05:16:23;;;;;;;17.23;3.00;;;9.00;1.00;;;;;;5050578;28;20179;-48
2022/09/18 05:18:51;;;;;;;18.03;2.03;;;9.10;1.00;;;;;;5050913;28;20407;-48
2022/09/18 05:21:17;;;;;;;9.10;2.00;;;9.10;1.00;;;;;;5052419;28;20425;-48
2022/09/18 05:23:44;;;;;;;12.67;2.63;;;9.20;1.00;;;;;;5050514;28;20424;-48
2022/09/18 05:26:10;;;;;;;5.20;1.70;;;9.20;1.00;;;;;;5050435;28;20234;-46
2022/09/18 05:28:36;;;;;;;18.60;2.70;;;9.20;1.00;;;;;;5050406;28;20530;-46
2022/09/18 05:31:03;;;;;;;10.00;2.23;;;9.20;1.00;;;;;;5050609;28;20420;-46
2022/09/18 05:33:29;;;;;;;7.03;1.83;;;9.20;1.00;;;;;;5050741;28;20420;-46
2022/09/18 05:35:56;;;;;;;12.70;2.43;;;9.20;1.00;;;;;;5050611;28;20400;-46
2022/09/18 05:38:22;;;;;;;13.30;2.17;;;9.20;1.00;;;;;;5050518;28;20615;-46
2022/09/18 05:40:48;;;;;;;11.23;2.07;;;9.20;1.00;;;;;;5051031;28;20404;-48
2022/09/18 05:43:14;;;;;;;6.80;1.77;;;9.20;1.00;;;;;;5050731;28;20420;-48
2022/09/18 05:45:41;;;;;;;11.40;2.33;;;9.20;1.00;;;;;;5050316;28;20740;-49
2022/09/18 05:48:07;;;;;;;15.70;2.33;;;9.10;1.00;;;;;;5050041;28;20448;-47
2022/09/18 05:50:35;;;;;;;15.23;1.80;;;9.20;1.00;;;;;;5050927;28;20413;-48
2022/09/18 05:53:09;;;;;;;16.93;2.17;;;9.20;1.00;;;;;;5050707;28;20158;-48
2022/09/18 05:55:35;;;;;;;11.47;1.80;;;9.20;1.00;;;;;;5050959;28;20396;-48
2022/09/18 05:58:02;;;;;;;15.10;2.37;;;9.30;1.00;;;;;;5050565;28;20826;-48
2022/09/18 06:00:31;;;;;;;12.17;2.00;;;9.30;1.00;;;;;;5050515;28;20405;-47
2022/09/18 06:03:09;;;;;;;9.40;1.93;;;9.30;1.00;;;;;;5050354;28;20413;-46
2022/09/18 06:05:36;;;;;;;16.43;2.30;;;9.40;1.00;;;;;;5050262;28;21083;-46
2022/09/18 06:08:04;;;;;;;11.77;2.50;;;9.40;1.00;;;;;;5050071;28;20961;-46
2022/09/18 06:10:32;;;;;;;14.23;2.43;;;9.40;1.00;;;;;;5050056;28;20408;-46
2022/09/18 06:13:14;;;;;;;14.20;1.93;;;9.40;1.00;;;;;;5050105;28;20891;-46
2022/09/18 06:15:46;;;;;;;13.03;1.70;;;9.40;1.00;;;;;;5050111;28;20421;-46
2022/09/18 06:18:13;;;;;;;8.57;2.10;;;9.40;1.00;;;;;;5051530;28;21080;-47
2022/09/18 06:20:40;;;;;;;12.47;2.13;;;9.40;1.00;;;;;;5050394;28;20397;-48
2022/09/18 06:23:05;;;;;;;9.83;1.77;;;9.40;1.00;;;;;;5050643;28;20393;-48
2022/09/18 06:25:31;;;;;;;7.73;1.70;;;9.50;1.00;;;;;;5050108;28;20935;-47
2022/09/18 06:27:59;;;;;;;12.03;2.27;;;9.50;1.00;;;;;;5049938;28;20796;-48
2022/09/18 06:30:30;;;;;;;7.73;2.37;;;9.50;1.00;;;;;;5031417;28;20267;-49
2022/09/18 06:33:03;;;;;;;5.07;1.87;;;9.40;1.00;;;;;;5030999;28;20398;-53
2022/09/18 06:35:30;;;;;;;10.23;1.97;;;9.50;1.00;;;;;;5030161;28;20413;-47
2022/09/18 06:38:02;;;;;;;11.37;1.83;;;9.50;1.00;;;;;;5029222;28;20444;-45
2022/09/18 06:40:29;;;;;;;5.73;1.53;;;9.60;1.00;;;;;;5029956;28;20436;-45
2022/09/18 06:43:00;;;;;;;18.83;3.00;;;9.70;1.00;;;;;;5030063;28;20422;-45
2022/09/18 06:45:26;;;;;;;10.57;2.50;;;9.80;1.00;;;;;;5029908;28;20432;-45
2022/09/18 06:47:53;;;;;;;7.63;2.27;;;9.90;1.00;;;;;;5029937;28;20969;-47
2022/09/18 06:50:24;;;;;;;15.90;2.17;;;9.80;1.00;;;;;;5030807;28;20456;-47
2022/09/18 06:52:50;;;;;;;8.83;1.90;;;9.80;99.90;;;;;;5029992;28;20501;-46
2022/09/18 06:55:17;;;;;;;11.60;2.10;;;9.80;99.90;;;;;;5030420;28;20949;-47
2022/09/18 06:57:53;;;;;;;10.03;2.20;;;9.80;99.90;;;;;;5031218;28;20986;-50
2022/09/18 07:00:18;;;;;;;10.83;1.90;;;9.90;99.90;;;;;;5033185;28;20456;-48
2022/09/18 07:02:44;;;;;;;8.63;1.60;;;10.20;99.90;;;;;;5033690;28;20429;-47
2022/09/18 07:05:09;;;;;;;8.83;2.20;;;10.80;1.00;;;;;;5033676;28;20593;-47
2022/09/18 07:07:35;;;;;;;7.67;1.80;;;11.30;99.90;;;;;;5033844;28;20203;-46
2022/09/18 07:10:01;;;;;;;7.93;1.90;;;11.30;1.00;;;;;;5033867;28;20266;-47
2022/09/18 07:12:28;;;;;;;4.83;1.70;;;11.10;99.90;;;;;;5033762;28;20176;-46
2022/09/18 07:14:53;;;;;;;6.27;1.77;;;10.80;74.30;;;;;;5033226;28;20519;-46
2022/09/18 07:17:19;;;;;;;9.83;1.80;;;10.60;1.00;;;;;;5041429;28;20519;-46
2022/09/18 07:19:45;;;;;;;10.80;1.90;;;10.60;92.60;;;;;;5053070;28;20182;-46
2022/09/18 07:22:10;;;;;;;7.20;1.63;;;10.70;99.90;;;;;;5052512;28;20190;-49
2022/09/18 07:24:36;;;;;;;14.60;1.90;;;10.70;1.00;;;;;;5052634;28;20229;-48
2022/09/18 07:27:01;;;;;;;8.00;1.67;;;11.00;99.90;;;;;;5046328;28;20191;-46
2022/09/18 07:29:27;;;;;;;10.60;3.03;;;11.60;99.90;;;;;;5047210;28;20218;-46
2022/09/18 07:31:52;;;;;;;9.43;1.80;;;11.90;99.90;;;;;;5051891;28;20197;-46
2022/09/18 07:34:18;;;;;;;7.80;1.60;;;11.80;68.00;;;;;;5036960;28;20228;-46
2022/09/18 07:36:47;;;;;;;10.17;2.00;;;11.50;99.90;;;;;;5040997;28;20542;-48
2022/09/18 07:39:13;;;;;;;8.33;1.87;;;11.30;1.00;;;;;;5039000;28;20209;-48
2022/09/18 07:41:38;;;;;;;13.80;1.80;;;11.70;99.90;;;;;;5050244;28;20447;-47
2022/09/18 07:44:04;;;;;;;10.57;1.43;;;12.50;1.00;;;;;;5046917;28;20183;-48
2022/09/18 07:46:29;;;;;;;9.67;1.53;;;13.30;99.90;;;;;;5050808;28;20248;-48
2022/09/18 07:48:55;;;;;;;8.40;1.50;;;13.90;1.00;;;;;;5052461;28;20194;-48
2022/09/18 07:51:21;;;;;;;8.50;1.90;;;14.30;99.90;;;;;;5052252;28;20198;-47
2022/09/18 07:53:47;;;;;;;8.27;1.60;;;14.10;99.90;;;;;;5052498;28;20170;-48
2022/09/18 07:56:13;;;;;;;11.13;1.77;;;14.10;1.00;;;;;;5052995;28;20776;-45
2022/09/18 07:58:39;;;;;;;11.20;1.87;;;14.20;1.00;;;;;;5052800;28;20462;-46
2022/09/18 08:01:05;;;;;;;8.17;1.80;;;13.70;99.90;;;;;;5052656;28;20523;-46
2022/09/18 08:03:31;;;;;;;9.20;1.90;;;13.70;99.90;;;;;;5052833;28;20698;-45
2022/09/18 08:05:57;;;;;;;9.60;1.40;;;14.00;1.00;;;;;;5053674;28;20401;-46
2022/09/18 08:08:22;;;;;;;7.70;1.83;;;14.60;1.00;;;;;;5052867;28;20202;-49
2022/09/18 08:10:48;;;;;;;13.30;1.60;;;14.70;1.00;;;;;;5052112;28;20182;-48
2022/09/18 08:13:14;;;;;;;10.63;2.13;;;14.20;1.00;;;;;;5053941;28;20175;-48
2022/09/18 08:15:42;;;;;;;13.87;3.47;;;13.40;1.00;;;;;;5052188;28;20182;-49
2022/09/18 08:18:10;;;;;;;7.40;1.40;;;12.70;1.00;;;;;;5052188;28;20178;-47
2022/09/18 08:20:36;;;;;;;6.63;1.83;;;12.30;1.00;;;;;;5052032;28;20405;-46
2022/09/18 08:23:03;;;;;;;8.33;1.80;;;12.00;1.00;;;;;;5035783;28;20837;-46
2022/09/18 08:25:29;;;;;;;5.00;1.43;;;12.20;30.90;;;;;;5031819;28;20576;-46
2022/09/18 08:28:01;;;;;;;8.57;1.83;;;12.70;91.20;;;;;;5031951;28;20552;-46
2022/09/18 08:30:28;;;;;;;6.53;2.00;;;13.40;26.90;;;;;;5031715;28;20254;-46
2022/09/18 08:32:58;;;;;;;6.20;1.83;;;13.70;1.00;;;;;;5032281;28;20432;-46
2022/09/18 08:35:24;;;;;;;9.77;1.83;;;13.70;1.00;;;;;;5032407;28;20493;-46
2022/09/18 08:37:50;;;;;;;7.50;2.23;;;13.30;1.00;;;;;;5031939;28;20493;-46
2022/09/18 08:40:19;;;;;;;4.40;1.50;;;13.00;1.00;;;;;;5031802;28;20201;-46
2022/09/18 08:43:00;;;;;;;13.43;2.27;;;12.70;1.00;;;;;;5031645;28;20219;-47
2022/09/18 08:45:40;;;;;;;8.00;1.83;;;13.30;9.90;;;;;;5031460;28;20416;-46
2022/09/18 08:48:15;;;;;;;7.60;1.97;;;14.20;1.00;;;;;;5031499;28;20500;-46
2022/09/18 08:50:46;;;;;;;7.50;1.77;;;15.10;1.00;;;;;;5031957;28;20398;-47
2022/09/18 08:53:37;;;;;;;8.00;2.00;;;15.90;1.00;;;;;;5032185;28;20903;-46
2022/09/18 08:56:05;;;;;;;9.90;1.60;;;16.50;1.00;;;;;;5031756;28;20460;-46
2022/09/18 08:58:41;;;;;;;12.47;2.33;;;16.90;1.00;;;;;;5032463;28;20402;-47
2022/09/18 09:01:11;;;;;;;9.23;1.47;;;16.30;1.00;;;;;;5031420;28;20398;-46
2022/09/18 09:03:59;;;;;;;6.57;2.03;;;15.20;1.00;;;;;;5031595;28;20443;-46
2022/09/18 09:06:41;;;;;;;14.80;2.30;;;14.10;1.00;;;;;;5031277;28;20425;-46
2022/09/18 09:09:31;;;;;;;5.80;1.77;;;13.40;1.00;;;;;;5031253;28;20915;-46
2022/09/18 09:12:26;;;;;;;7.83;1.53;;;12.70;1.00;;;;;;5030952;28;20489;-46
2022/09/18 09:15:22;;;;;;;6.73;1.10;;;12.20;1.00;;;;;;5031348;28;20394;-48
2022/09/18 09:18:14;;;;;;;3.33;1.10;;;11.90;1.00;;;;;;5031519;28;20995;-48
2022/09/18 09:20:49;;;;;;;9.90;1.60;;;11.70;1.00;;;;;;5020724;28;20422;-47
2022/09/18 09:23:21;;;;;;;5.50;1.10;;;11.80;1.00;;;;;;5031418;28;20402;-48
2022/09/18 09:25:54;;;;;;;15.23;1.60;;;12.10;1.00;;;;;;5030785;28;20560;-48
2022/09/18 09:28:25;;;;;;;4.87;1.40;;;12.30;1.00;;;;;;5026282;28;20555;-48
2022/09/18 09:30:57;;;;;;;8.40;1.40;;;12.40;1.00;;;;;;5041529;28;20425;-48
2022/09/18 09:33:42;;;;;;;6.70;1.40;;;12.50;1.00;;;;;;5030660;28;20409;-48
2022/09/18 09:36:14;;;;;;;8.30;1.43;;;12.60;1.00;;;;;;5047972;28;20428;-49
2022/09/18 09:38:47;;;;;;;9.30;1.87;;;12.50;1.00;;;;;;5048734;28;20405;-48
2022/09/18 09:41:33;;;;;;;5.93;1.40;;;12.30;1.00;;;;;;5048803;28;20409;-48
2022/09/18 09:44:17;;;;;;;9.50;1.73;;;12.10;1.00;;;;;;5050978;28;21008;-48
2022/09/18 09:46:52;;;;;;;8.60;1.67;;;12.20;1.00;;;;;;5050635;28;20898;-48
2022/09/18 09:49:24;;;;;;;8.37;1.30;;;12.40;46.50;;;;;;5050075;28;20459;-49
2022/09/18 09:52:01;;;;;;;10.53;1.30;;;12.60;88.20;;;;;;5048924;28;20401;-48
2022/09/18 09:54:27;;;;;;;6.07;1.47;;;12.60;1.00;;;;;;5049452;28;20408;-49
2022/09/18 09:57:21;;;;;;;6.67;1.20;;;12.60;1.00;;;;;;5051468;28;20416;-48
2022/09/18 10:00:05;;;;;;;11.13;1.83;;;12.50;1.00;;;;;;5049934;28;20916;-46
2022/09/18 10:02:37;;;;;;;4.03;1.60;;;12.30;1.00;;;;;;5049086;28;20420;-46
2022/09/18 10:05:35;;;;;;;6.43;1.20;;;12.10;1.00;;;;;;5051234;28;20738;-46
2022/09/18 10:08:04;;;;;;;5.33;1.40;;;11.90;1.00;;;;;;5030102;28;20469;-46
2022/09/18 10:10:41;;;;;;;8.10;1.60;;;11.70;4.40;;;;;;5050437;28;21052;-46
2022/09/18 10:13:15;;;;;;;5.53;1.40;;;11.70;28.40;;;;;;5049475;28;20400;-47
2022/09/18 10:15:50;;;;;;;4.27;1.20;;;11.90;96.70;;;;;;5049661;28;20445;-47
2022/09/18 10:18:35;;;;;;;7.17;1.77;;;12.40;12.00;;;;;;5049643;28;20401;-46
2022/09/18 10:21:06;;;;;;;4.40;1.37;;;12.80;1.00;;;;;;5050548;28;20444;-46
2022/09/18 10:23:37;;;;;;;5.63;2.13;;;13.30;1.00;;;;;;5049880;28;20854;-45
2022/09/18 10:26:04;;;;;;;4.63;1.63;;;13.60;1.00;;;;;;5048244;28;20476;-46
2022/09/18 10:28:30;;;;;;;4.90;1.20;;;14.10;1.00;;;;;;5046147;28;20469;-46
2022/09/18 10:31:04;;;;;;;5.27;1.60;;;14.60;1.00;;;;;;5030964;28;20409;-63
2022/09/18 10:33:36;;;;;;;3.70;1.40;;;15.30;1.00;;;;;;5033757;28;20508;-46
2022/09/18 10:36:36;;;;;;;5.83;1.60;;;15.80;1.00;;;;;;5035386;28;20907;-46
2022/09/18 10:39:28;;;;;;;5.03;1.50;;;16.00;1.00;;;;;;5035390;28;20460;-46
2022/09/18 10:42:17;;;;;;;7.90;1.60;;;15.20;1.00;;;;;;5034476;28;20430;-45
2022/09/18 10:44:49;;;;;;;5.83;1.63;;;14.50;1.00;;;;;;5042531;28;20918;-45
2022/09/18 10:47:26;;;;;;;9.87;2.30;;;13.80;1.00;;;;;;5053670;28;20428;-45
2022/09/18 10:49:58;;;;;;;11.93;2.03;;;13.20;1.00;;;;;;5054621;28;20404;-46
2022/09/18 10:52:34;;;;;;;5.37;1.57;;;12.60;1.00;;;;;;5054721;28;20431;-45
2022/09/18 10:55:05;;;;;;;7.70;1.40;;;12.10;1.00;;;;;;5055865;28;20401;-46
2022/09/18 10:57:42;;;;;;;6.37;1.50;;;11.80;1.00;;;;;;5055131;28;20400;-47
2022/09/18 11:00:11;;;;;;;3.40;1.30;;;11.80;43.50;;;;;;5055119;28;20388;-45
2022/09/18 11:03:11;;;;;;;3.43;1.10;;;12.60;99.90;;;;;;5055895;28;20440;-45
2022/09/18 11:05:46;;;;;;;2.43;1.00;;;13.70;99.90;;;;;;5054523;28;20879;-45
2022/09/18 11:08:18;;;;;;;4.37;1.27;;;14.90;1.00;;;;;;5054523;28;20505;-45
2022/09/18 11:10:58;;;;;;;7.77;1.80;;;16.40;1.00;;;;;;5054449;28;20409;-46
2022/09/18 11:13:27;;;;;;;3.13;1.13;;;17.40;1.00;;;;;;5054288;28;20415;-46
2022/09/18 11:15:57;;;;;;;6.13;1.10;;;17.70;1.00;;;;;;5054446;28;20507;-48
2022/09/18 11:18:24;;;;;;;5.77;0.93;;;17.80;1.00;;;;;;5057334;28;20416;-50
2022/09/18 11:20:51;;;;;;;3.33;0.97;;;17.50;1.00;;;;;;5056554;28;20451;-48
2022/09/18 11:23:24;;;;;;;4.90;1.10;;;17.20;1.00;;;;;;5054954;28;20404;-49
2022/09/18 11:26:08;;;;;;;4.60;1.00;;;17.70;1.00;;;;;;5053959;28;20472;-49
2022/09/18 11:28:33;;;;;;;4.20;1.43;;;18.80;1.00;;;;;;5054812;28;20499;-48
2022/09/18 11:31:04;;;;;;;1.60;0.77;;;19.20;1.00;;;;;;5056663;28;20417;-49
2022/09/18 11:33:36;;;;;;;2.70;0.80;;;19.20;1.00;;;;;;5055963;28;20182;-49
2022/09/18 11:36:10;;;;;;;5.07;1.10;;;19.00;1.00;;;;;;5054943;28;20413;-48
2022/09/18 11:38:45;;;;;;;3.67;1.10;;;19.30;1.00;;;;;;5055899;28;20394;-48
2022/09/18 11:41:12;;;;;;;3.77;1.00;;;19.40;1.00;;;;;;5055144;28;20404;-49
2022/09/18 11:43:41;;;;;;;2.93;0.87;;;18.90;99.90;;;;;;5053517;28;20472;-48
2022/09/18 11:46:15;;;;;;;7.23;1.20;;;19.00;99.90;;;;;;5054657;28;20429;-48
2022/09/18 11:48:48;;;;;;;3.80;1.10;;;17.80;99.90;;;;;;5056307;28;20445;-49
2022/09/18 11:51:25;;;;;;;4.53;1.10;;;16.90;99.90;;;;;;5055502;28;20413;-48
2022/09/18 11:54:01;;;;;;;4.90;1.20;;;16.60;99.90;;;;;;5054721;28;20960;-49
2022/09/18 11:56:40;;;;;;;5.00;1.40;;;16.20;99.90;;;;;;5053704;28;20444;-49
2022/09/18 11:59:30;;;;;;;6.83;2.50;;;15.20;1.00;;;;;;5054057;28;20420;-48
2022/09/18 12:02:25;;;;;;;7.10;1.63;;;14.10;1.00;;;;;;5054149;28;20409;-48
2022/09/18 12:05:10;;;;;;;5.20;1.30;;;13.40;1.00;;;;;;5049942;28;20433;-48
2022/09/18 12:07:47;;;;;;;5.70;1.23;;;13.10;1.00;;;;;;5055142;28;20480;-48
2022/09/18 12:10:23;;;;;;;6.70;1.47;;;12.90;1.00;;;;;;5055395;28;20397;-48
2022/09/18 12:13:10;;;;;;;6.23;1.43;;;12.90;1.00;;;;;;5054620;28;20478;-52
2022/09/18 12:15:39;;;;;;;10.37;2.23;;;13.00;1.00;;;;;;5054974;28;20415;-48
2022/09/18 12:18:15;;;;;;;11.10;1.87;;;13.80;1.00;;;;;;5055811;28;20496;-49
2022/09/18 12:20:47;;;;;;;6.10;1.37;;;15.00;1.00;;;;;;5055632;28;20409;-49
2022/09/18 12:23:22;;;;;;;5.67;1.57;;;16.00;1.00;;;;;;5055589;28;20435;-49
2022/09/18 12:26:13;;;;;;;10.77;1.37;;;17.00;1.00;;;;;;5055044;28;20483;-47
2022/09/18 12:29:02;;;;;;;6.50;1.50;;;18.00;1.00;;;;;;5057187;28;20827;-49
2022/09/18 12:31:53;;;;;;;11.07;1.67;;;18.90;1.00;;;;;;5045399;28;20456;-49
2022/09/18 12:34:43;;;;;;;9.97;1.63;;;18.90;1.00;;;;;;5034346;28;20414;-49
2022/09/18 12:37:18;;;;;;;4.93;1.30;;;18.00;99.90;;;;;;5033023;28;20406;-48
2022/09/18 12:39:59;;;;;;;5.70;1.23;;;16.60;99.90;;;;;;5033079;28;20417;-49
2022/09/18 12:42:47;;;;;;;3.73;1.60;;;15.40;1.00;;;;;;5032643;28;20488;-49
2022/09/18 12:45:13;;;;;;;8.10;1.40;;;14.90;1.00;;;;;;5031602;28;20942;-49
2022/09/18 12:47:49;;;;;;;9.87;1.40;;;15.10;1.00;;;;;;5033147;28;20398;-49
2022/09/18 12:50:36;;;;;;;4.80;1.27;;;16.10;1.00;;;;;;5032570;28;20200;-49
2022/09/18 12:53:11;;;;;;;7.70;1.57;;;16.60;1.00;;;;;;5031703;28;20394;-48
2022/09/18 12:55:51;;;;;;;3.40;1.20;;;16.30;1.00;;;;;;5032019;28;20390;-49
2022/09/18 12:58:20;;;;;;;8.50;1.60;;;15.70;1.00;;;;;;5032194;28;20468;-51
2022/09/18 13:00:49;;;;;;;7.77;1.30;;;14.90;1.00;;;;;;5031450;28;20888;-48
2022/09/18 13:03:34;;;;;;;3.80;1.27;;;14.10;1.00;;;;;;5031960;28;20445;-48
2022/09/18 13:06:09;;;;;;;4.87;1.33;;;13.30;1.00;;;;;;5048188;28;20417;-48
2022/09/18 13:08:51;;;;;;;5.53;1.03;;;12.80;1.00;;;;;;5031597;28;20545;-48
2022/09/18 13:11:30;;;;;;;7.77;1.20;;;12.60;1.00;;;;;;5031652;28;20759;-49
2022/09/18 13:14:04;;;;;;;4.90;1.40;;;12.40;1.00;;;;;;5031765;28;20471;-47
2022/09/18 13:16:50;;;;;;;3.97;0.93;;;12.30;1.00;;;;;;5032036;28;20466;-47
2022/09/18 13:19:27;;;;;;;5.20;1.17;;;12.30;1.00;;;;;;5031726;28;20405;-47